• Join FlightAware (Why Join?)
  • Login
  • US Flag 
07:09PM EDT


 

Airport Tracker/Info


-or-


 

Live Flight TrackerFlight Track Log ✈ N754DJ ✈ 20-Mar-2014 ✈ KJYR - KEYE

Flight Track Log - Related Links

Times and Time Zones

All times are in EDT time to prevent confusion due to time zone crossing. See the N754DJ flight status page for this flight to view local times or setup timezone preferences in your user account.

Time Position Orientation Groundspeed Altitude Reporting Facility
EDT Latitude Longitude Course Direction KTS MPH feet Rate Location/Type
05:38PM 40.9181 -97.4714 94° East 144 166 4,700  Level Minneapolis Center
05:39PM 40.9164 -97.4164 92° East 144 166 5,500 720 Climbing Minneapolis Center
05:40PM 40.9161 -97.3633 90° East 150 173 6,300 840 Climbing Minneapolis Center
05:40PM 40.8958 -97.3242 124° Southeast 155 178 6,800 840 Climbing Minneapolis Center
05:41PM 40.9150 -97.2961 48° Northeast 151 174 7,200 720 Climbing Minneapolis Center
05:41PM 40.8953 -97.2717 137° Southeast 156 180 7,500 720 Climbing Minneapolis Center
05:42PM 40.8826 -97.1406 96° East  Level FlightAware Approximate
05:42PM 40.9125 -97.2378 56° Northeast 156 180 8,000  Level Minneapolis Center
05:43PM 40.9111 -97.1792 92° East 157 181 8,800 720 Climbing Minneapolis Center
05:44PM 40.9094 -97.1208 92° East 157 181 9,600 720 Climbing Minneapolis Center
05:45PM 40.9078 -97.0603 92° East 160 184 10,300 660 Climbing Minneapolis Center
05:46PM 40.9061 -96.9953 92° East 171 197 11,000 720 Climbing Minneapolis Center
05:47PM 40.9044 -96.9150 92° East 180 207 11,800 720 Climbing Minneapolis Center
05:48PM 40.9017 -96.8469 93° East 181 208 12,500 660 Climbing Minneapolis Center
05:49PM 40.8994 -96.7789 92° East 183 211 13,200 660 Climbing Minneapolis Center
05:50PM 40.8972 -96.7064 92° East 192 221 13,900 660 Climbing Minneapolis Center
05:51PM 40.8958 -96.6333 91° East 195 224 14,600 660 Climbing Minneapolis Center
05:52PM 40.8931 -96.5589 93° East 200 230 15,300 720 Climbing Minneapolis Center
05:53PM 40.8894 -96.4675 93° East 205 236 16,100 720 Climbing Minneapolis Center
05:54PM 40.8808 -96.4136 102° East 214 246 16,600 780 Climbing Minneapolis Center
05:54PM 40.8800 -96.3697 91° East 211 243 17,000 240 Climbing Minneapolis Center
05:55PM 40.8847 -96.3097 84° East 215 247 17,000  Level Minneapolis Center
05:55PM 40.8792 -96.2900 110° East 232 267 17,000  Level Minneapolis Center
05:56PM 40.8814 -96.2225 87° East 232 267 17,000  Level Minneapolis Center
05:57PM 40.8772 -96.1342 94° East 237 273 17,000  Level Minneapolis Center
05:58PM 40.8753 -96.0461 92° East 238 274 17,000  Level Minneapolis Center
05:59PM 40.8706 -95.9406 93° East 238 274 17,000  Level Minneapolis Center
06:00PM 40.8675 -95.8544 93° East 238 274 17,000  Level Minneapolis Center
06:01PM 40.8639 -95.7672 93° East 238 274 17,000  Level Minneapolis Center
06:02PM 40.8603 -95.6836 93° East 234 269 17,000  Level Minneapolis Center
06:03PM 40.8583 -95.6003 92° East 233 268 17,000  Level Minneapolis Center
06:04PM 40.8531 -95.5189 95° East 225 259 17,000  Level Minneapolis Center
06:05PM 40.8500 -95.4183 92° East 225 259 17,000  Level Minneapolis Center
06:07PM 40.8458 -95.3339 94° East 226 260 17,000  Level Minneapolis Center
06:08PM 40.8428 -95.2478 93° East 231 266 17,000  Level Minneapolis Center
06:09PM 40.8394 -95.1633 93° East 231 266 17,000  Level Minneapolis Center
06:10PM 40.8344 -95.0794 94° East 231 266 17,000  Level Minneapolis Center
06:11PM 40.8303 -94.9781 93° East 231 266 17,000  Level Minneapolis Center
06:12PM 40.8256 -94.8933 94° East 231 266 17,000  Level Minneapolis Center
06:13PM 40.8225 -94.8083 93° East 231 266 17,000  Level Minneapolis Center
06:14PM 40.8181 -94.7239 94° East 231 266 17,000  Level Minneapolis Center
06:15PM 40.8128 -94.6397 95° East 231 266 17,000  Level Minneapolis Center
06:16PM 40.8094 -94.5475 93° East 231 266 17,100  Climbing Minneapolis Center
06:17PM 40.8042 -94.4631 95° East 232 267 17,100  Level Minneapolis Center
06:18PM 40.8000 -94.3781 94° East 232 267 17,100  Level Minneapolis Center
06:19PM 40.7947 -94.2747 94° East 232 267 17,100  Level Minneapolis Center
06:20PM 40.7908 -94.1897 93° East 232 267 17,100 -60 Level Minneapolis Center
06:21PM 40.7858 -94.1044 94° East 233 268 17,000 -60 Descending Minneapolis Center
06:22PM 40.7803 -94.0197 95° East 233 268 17,000  Level Minneapolis Center
06:23PM 40.7758 -93.9367 94° East 233 268 17,000  Level Minneapolis Center
06:24PM 40.7706 -93.8339 94° East 233 268 17,000  Level Minneapolis Center
06:25PM 40.7647 -93.7478 95° East 235 270 17,000  Level Minneapolis Center
06:26PM 40.7606 -93.6625 94° East 235 270 17,000  Level Minneapolis Center
06:27PM 40.7567 -93.5753 93° East 236 272 17,000  Level Minneapolis Center
06:28PM 40.7514 -93.4889 95° East 236 272 17,000  Level Minneapolis Center
06:29PM 40.7439 -93.3881 96° East 236 272 17,000  Level Minneapolis Center
06:30PM 40.7386 -93.3019 95° East 236 272 17,000  Level Minneapolis Center
06:31PM 40.7344 -93.2161 94° East 236 272 17,000  Level Minneapolis Center
06:32PM 40.7286 -93.1300 95° East 236 272 17,000  Level Minneapolis Center
06:33PM 40.7225 -93.0439 95° East 236 272 17,000  Level Minneapolis Center
06:34PM 40.7172 -92.9394 94° East 236 272 17,000  Level Minneapolis Center
06:35PM 40.7117 -92.8519 95° East 236 272 17,000  Level Minneapolis Center
06:37PM 40.7050 -92.7469 95° East 239 275 17,000  Level Kansas City Center
06:37PM 40.7017 -92.7119 97° East 238 274 17,000  Level Chicago Center
06:38PM 40.6961 -92.6264 95° East 238 274 17,000  Level Chicago Center
06:39PM 40.6894 -92.5228 95° East 238 274 17,000  Level Chicago Center
06:40PM 40.6836 -92.4353 95° East 238 274 17,000  Level Chicago Center
06:41PM 40.6778 -92.3494 95° East 238 274 17,000  Level Chicago Center
06:42PM 40.6714 -92.2628 96° East 238 274 17,000  Level Chicago Center
06:43PM 40.6656 -92.1756 95° East 238 274 17,000  Level Chicago Center
06:44PM 40.6597 -92.0883 95° East 239 275 17,000  Level Chicago Center
06:45PM 40.6519 -91.9844 96° East 239 275 17,000  Level Chicago Center
06:46PM 40.6447 -91.8978 96° East 239 275 17,000  Level Chicago Center
06:48PM 40.6392 -91.8114 95° East 239 275 17,000  Level Chicago Center
06:49PM 40.6328 -91.7250 96° East 239 275 17,000  Level Chicago Center
06:50PM 40.6258 -91.6375 96° East 239 275 17,000  Level Chicago Center
06:50PM 40.6217 -91.5850 96° East 239 275 17,000  Level Kansas City Center
06:51PM 40.6139 -91.4969 97° East 239 275 17,000  Level Kansas City Center
06:52PM 40.6081 -91.4100 95° East 240 276 17,000 -60 Level Kansas City Center
06:53PM 40.5994 -91.3219 97° East 244 281 16,900 -60 Descending Kansas City Center
06:54PM 40.5922 -91.2219 95° East 243 280 16,900  Level Kansas City Center
06:55PM 40.5850 -91.1361 96° East 241 277 16,900  Level Kansas City Center
06:56PM 40.5825 -91.0842 94° East 239 275 16,900  Level Chicago Center
06:57PM 40.5761 -90.9975 96° East 239 275 16,900  Level Chicago Center
06:58PM 40.5689 -90.9111 96° East 239 275 16,900  Level Chicago Center
06:59PM 40.5608 -90.8250 97° East 239 275 16,900  Level Chicago Center
07:00PM 40.5542 -90.7364 96° East 243 280 16,900  Level Chicago Center
07:01PM 40.5456 -90.6325 96° East 241 277 16,900  Level Chicago Center
07:02PM 40.5381 -90.5444 96° East 241 277 16,900  Level Chicago Center
07:03PM 40.5303 -90.4556 97° East 242 278 16,900  Level Chicago Center
07:04PM 40.5231 -90.3686 96° East 242 278 16,900  Level Chicago Center
07:05PM 40.5147 -90.2814 97° East 242 278 16,900  Level Chicago Center
07:06PM 40.5061 -90.1844 97° East 242 278 16,900  Level Chicago Center
07:07PM 40.4983 -90.0989 97° East 241 277 16,900  Level Chicago Center
07:08PM 40.4908 -90.0125 96° East 240 276 16,900  Level Chicago Center
07:09PM 40.4811 -89.9094 97° East 240 276 16,900  Level Chicago Center
07:10PM 40.4733 -89.8239 97° East 239 275 16,900  Level Chicago Center
07:11PM 40.4647 -89.7317 97° East 238 274 16,900  Level Chicago Center
07:12PM 40.4578 -89.6461 96° East 238 274 16,900  Level Chicago Center
07:13PM 40.4492 -89.5614 98° East 237 273 16,900  Level Chicago Center
07:14PM 40.4419 -89.4764 96° East 237 273 16,900  Level Chicago Center
07:15PM 40.4333 -89.3908 98° East 236 272 16,900  Level Chicago Center
07:17PM 40.4231 -89.2886 97° East 236 272 16,900  Level Chicago Center
07:18PM 40.4144 -89.2019 97° East 236 272 16,900  Level Chicago Center
07:19PM 40.4075 -89.1153 96° East 240 276 16,900  Level Chicago Center
07:20PM 40.3989 -89.0292 97° East 239 275 16,900  Level Chicago Center
07:21PM 40.3897 -88.9436 98° East 239 275 16,900  Level Chicago Center
07:22PM 40.3814 -88.8586 97° East 239 275 16,900  Level Chicago Center
07:23PM 40.3708 -88.7578 98° East 238 274 16,900  Level Chicago Center
07:24PM 40.3628 -88.6708 97° East 238 274 16,900  Level Chicago Center
07:25PM 40.3531 -88.5856 98° East 238 274 16,900  Level Chicago Center
07:26PM 40.3444 -88.4967 97° East 237 273 16,900  Level Chicago Center
07:27PM 40.3356 -88.4114 98° East 237 273 16,900  Level Chicago Center
07:28PM 40.3275 -88.3267 97° East 237 273 16,900 -60 Level Chicago Center
07:29PM 40.3033 -88.2275 108° East 237 273 16,800 -240 Descending Chicago Center
07:30PM 40.2836 -88.1439 107° East 238 274 16,500 -420 Descending Chicago Center
07:31PM 40.2628 -88.0578 108° East 246 283 16,000 -540 Descending Chicago Center
07:32PM 40.2433 -87.9672 106° East 256 295 15,500 -540 Descending Chicago Center
07:33PM 40.2217 -87.8794 108° East 257 296 15,000 -600 Descending Chicago Center
07:34PM 40.1992 -87.7889 108° East 258 297 14,400 -780 Descending Indianapolis Center
07:35PM 40.1772 -87.6983 108° East 258 297 13,600 -840 Descending Indianapolis Center
07:36PM 40.1553 -87.6072 107° East 259 298 12,800 -840 Descending Indianapolis Center
07:37PM 40.1342 -87.5186 107° East 259 298 12,000 -780 Descending Indianapolis Center
07:38PM 40.1125 -87.4325 108° East 256 295 11,300 -780 Descending Indianapolis Center
07:39PM 40.0886 -87.3314 107° East 248 285 10,400 -780 Descending Indianapolis Center
07:40PM 40.0678 -87.2483 108° East 246 283 9,700 -780 Descending Indianapolis Center
07:41PM 40.0486 -87.1653 107° East 243 280 8,900 -780 Descending Indianapolis Center
07:42PM 40.0278 -87.0881 109° East 232 267 8,200 -660 Descending Indianapolis Center
07:43PM 40.0106 -87.0111 106° East 228 262 7,600 -600 Descending Indianapolis Center
07:44PM 39.9917 -86.9369 108° East 220 253 7,000 -300 Descending Indianapolis Center
07:45PM 39.9747 -86.8658 107° East 211 243 7,000 -240 Level Indianapolis Center
07:46PM 39.9531 -86.7817 109° East 205 236 6,600 -600 Descending Indianapolis Center
07:47PM 39.9350 -86.7072 108° East 209 241 5,800 -780 Descending Indianapolis Center
07:48PM 39.9161 -86.6333 108° East 212 244 5,000 -780 Descending Indianapolis Center
07:49PM 39.8992 -86.5650 108° East 208 239 4,200 -780 Descending Indianapolis Center
07:50PM 39.8825 -86.4978 108° East 201 231 3,400 -600 Descending Indianapolis Center
07:52PM 39.8653 -86.4317 109° East 199 229 3,000 -420 Descending Indianapolis Center